sensor_id;sensor_type;location;lat;lon;timestamp;pressure;altitude;pressure_sealevel;temperature;humidity
73016;BME280;61893;50.074;14.440;2023-05-23T00:00:59;97975.56;;;16.49;67.00
73016;BME280;61893;50.074;14.440;2023-05-23T00:03:25;97964.41;;;16.52;65.07
73016;BME280;61893;50.074;14.440;2023-05-23T00:05:51;97966.47;;;16.50;65.32
73016;BME280;61893;50.074;14.440;2023-05-23T00:08:17;97965.19;;;16.39;65.78
73016;BME280;61893;50.074;14.440;2023-05-23T00:10:44;97970.38;;;16.41;65.84
73016;BME280;61893;50.074;14.440;2023-05-23T00:13:10;97968.16;;;16.51;65.54
73016;BME280;61893;50.074;14.440;2023-05-23T00:15:40;97973.25;;;16.39;66.25
73016;BME280;61893;50.074;14.440;2023-05-23T00:18:07;97972.03;;;16.35;66.56
73016;BME280;61893;50.074;14.440;2023-05-23T00:20:37;97975.16;;;16.52;65.99
73016;BME280;61893;50.074;14.440;2023-05-23T00:23:10;97984.84;;;16.53;65.71
73016;BME280;61893;50.074;14.440;2023-05-23T00:25:44;97983.34;;;16.24;66.41
73016;BME280;61893;50.074;14.440;2023-05-23T00:28:13;97977.94;;;16.11;67.26
73016;BME280;61893;50.074;14.440;2023-05-23T00:30:40;97978.38;;;16.21;66.88
73016;BME280;61893;50.074;14.440;2023-05-23T00:33:06;97981.88;;;16.15;67.06
73016;BME280;61893;50.074;14.440;2023-05-23T00:35:31;97970.94;;;16.16;67.31
73016;BME280;61893;50.074;14.440;2023-05-23T00:37:57;97974.88;;;16.14;67.15
73016;BME280;61893;50.074;14.440;2023-05-23T00:40:23;97976.06;;;16.05;67.41
73016;BME280;61893;50.074;14.440;2023-05-23T00:42:49;97974.81;;;16.01;67.50
73016;BME280;61893;50.074;14.440;2023-05-23T00:45:15;97968.97;;;15.90;67.66
73016;BME280;61893;50.074;14.440;2023-05-23T00:47:42;97971.47;;;15.92;67.57
73016;BME280;61893;50.074;14.440;2023-05-23T00:50:10;97968.72;;;15.79;68.48
73016;BME280;61893;50.074;14.440;2023-05-23T00:52:40;97970.66;;;15.98;67.51
73016;BME280;61893;50.074;14.440;2023-05-23T00:55:07;97966.13;;;16.05;66.78
73016;BME280;61893;50.074;14.440;2023-05-23T00:57:33;97957.44;;;15.90;67.78
73016;BME280;61893;50.074;14.440;2023-05-23T01:00:00;97963.84;;;16.02;67.55
73016;BME280;61893;50.074;14.440;2023-05-23T01:02:26;97967.19;;;16.04;67.52
73016;BME280;61893;50.074;14.440;2023-05-23T01:04:54;97961.81;;;16.04;67.45
73016;BME280;61893;50.074;14.440;2023-05-23T01:07:20;97957.06;;;15.99;67.53
73016;BME280;61893;50.074;14.440;2023-05-23T01:09:46;97955.41;;;15.98;67.87
73016;BME280;61893;50.074;14.440;2023-05-23T01:15:18;97944.66;;;15.98;68.45
73016;BME280;61893;50.074;14.440;2023-05-23T01:17:53;97937.41;;;15.92;68.99
73016;BME280;61893;50.074;14.440;2023-05-23T01:20:29;97933.03;;;15.85;69.53
73016;BME280;61893;50.074;14.440;2023-05-23T01:27:56;97926.59;;;15.72;70.21
73016;BME280;61893;50.074;14.440;2023-05-23T01:30:26;97919.78;;;15.70;70.27
73016;BME280;61893;50.074;14.440;2023-05-23T01:32:55;97910.22;;;15.61;70.90
73016;BME280;61893;50.074;14.440;2023-05-23T01:35:26;97919.78;;;15.70;70.68
73016;BME280;61893;50.074;14.440;2023-05-23T01:37:52;97932.75;;;15.66;70.93
73016;BME280;61893;50.074;14.440;2023-05-23T01:40:19;97934.25;;;15.41;71.92
73016;BME280;61893;50.074;14.440;2023-05-23T01:42:45;97936.72;;;15.36;72.26
73016;BME280;61893;50.074;14.440;2023-05-23T01:45:12;97939.78;;;15.32;72.81
73016;BME280;61893;50.074;14.440;2023-05-23T01:47:39;97934.41;;;15.32;73.01
73016;BME280;61893;50.074;14.440;2023-05-23T01:50:07;97938.72;;;15.27;73.65
73016;BME280;61893;50.074;14.440;2023-05-23T01:52:33;97947.72;;;15.19;73.75
73016;BME280;61893;50.074;14.440;2023-05-23T01:55:00;97962.56;;;15.15;74.32
73016;BME280;61893;50.074;14.440;2023-05-23T01:57:28;97966.28;;;15.14;74.85
73016;BME280;61893;50.074;14.440;2023-05-23T01:59:54;97958.31;;;15.27;73.94
73016;BME280;61893;50.074;14.440;2023-05-23T02:02:20;97958.44;;;15.19;74.24
73016;BME280;61893;50.074;14.440;2023-05-23T02:04:48;97971.84;;;15.19;74.33
73016;BME280;61893;50.074;14.440;2023-05-23T02:07:15;97973.41;;;15.35;74.00
73016;BME280;61893;50.074;14.440;2023-05-23T02:09:41;97969.16;;;15.19;74.56
73016;BME280;61893;50.074;14.440;2023-05-23T02:12:06;97973.53;;;15.55;73.29
73016;BME280;61893;50.074;14.440;2023-05-23T02:14:34;97977.03;;;15.55;72.01
73016;BME280;61893;50.074;14.440;2023-05-23T02:17:01;97981.72;;;15.82;70.67
73016;BME280;61893;50.074;14.440;2023-05-23T02:19:28;97984.88;;;15.85;69.90
73016;BME280;61893;50.074;14.440;2023-05-23T02:21:57;97995.38;;;15.87;69.54
73016;BME280;61893;50.074;14.440;2023-05-23T02:24:22;97992.22;;;15.76;69.33
73016;BME280;61893;50.074;14.440;2023-05-23T02:26:48;97982.94;;;15.72;69.21
73016;BME280;61893;50.074;14.440;2023-05-23T02:29:14;97990.34;;;15.70;68.91
73016;BME280;61893;50.074;14.440;2023-05-23T02:31:39;97999.56;;;15.61;69.34
73016;BME280;61893;50.074;14.440;2023-05-23T02:34:06;97995.94;;;15.47;69.90
73016;BME280;61893;50.074;14.440;2023-05-23T02:36:32;97987.31;;;15.45;70.00
73016;BME280;61893;50.074;14.440;2023-05-23T02:38:58;97994.50;;;15.45;69.92
73016;BME280;61893;50.074;14.440;2023-05-23T02:41:24;97999.81;;;15.38;69.48
73016;BME280;61893;50.074;14.440;2023-05-23T02:43:50;97992.66;;;15.17;68.77
73016;BME280;61893;50.074;14.440;2023-05-23T02:46:18;97990.78;;;15.11;68.77
73016;BME280;61893;50.074;14.440;2023-05-23T02:48:44;97991.47;;;14.98;68.88
73016;BME280;61893;50.074;14.440;2023-05-23T02:51:10;97982.31;;;14.86;69.33
73016;BME280;61893;50.074;14.440;2023-05-23T02:54:00;97983.53;;;14.83;69.68
73016;BME280;61893;50.074;14.440;2023-05-23T02:56:25;97975.44;;;14.77;70.03
73016;BME280;61893;50.074;14.440;2023-05-23T02:58:52;97979.84;;;14.63;70.69
73016;BME280;61893;50.074;14.440;2023-05-23T03:01:18;97980.41;;;14.58;70.95
73016;BME280;61893;50.074;14.440;2023-05-23T03:03:44;97967.16;;;14.72;70.70
73016;BME280;61893;50.074;14.440;2023-05-23T03:06:10;97974.94;;;14.67;71.04
73016;BME280;61893;50.074;14.440;2023-05-23T03:08:40;97975.06;;;14.58;71.33
73016;BME280;61893;50.074;14.440;2023-05-23T03:11:06;97966.13;;;14.51;71.89
73016;BME280;61893;50.074;14.440;2023-05-23T03:13:32;97972.59;;;14.42;72.12
73016;BME280;61893;50.074;14.440;2023-05-23T03:15:58;97963.63;;;14.50;72.04
73016;BME280;61893;50.074;14.440;2023-05-23T03:18:27;97963.75;;;14.41;72.46
73016;BME280;61893;50.074;14.440;2023-05-23T03:20:53;97968.53;;;14.46;72.53
73016;BME280;61893;50.074;14.440;2023-05-23T03:23:19;97956.97;;;14.60;71.67
73016;BME280;61893;50.074;14.440;2023-05-23T03:25:44;97948.97;;;14.46;72.34
73016;BME280;61893;50.074;14.440;2023-05-23T03:28:10;97952.00;;;14.57;71.96
73016;BME280;61893;50.074;14.440;2023-05-23T03:30:37;97955.75;;;14.63;71.73
73016;BME280;61893;50.074;14.440;2023-05-23T03:33:02;97955.41;;;14.73;71.20
73016;BME280;61893;50.074;14.440;2023-05-23T03:35:28;97961.69;;;14.80;70.94
73016;BME280;61893;50.074;14.440;2023-05-23T03:37:54;97964.56;;;14.85;70.42
73016;BME280;61893;50.074;14.440;2023-05-23T03:40:20;97965.59;;;15.05;68.76
73016;BME280;61893;50.074;14.440;2023-05-23T03:43:00;97952.88;;;15.14;67.82
73016;BME280;61893;50.074;14.440;2023-05-23T03:45:26;97947.00;;;15.04;68.06
73016;BME280;61893;50.074;14.440;2023-05-23T03:47:52;97946.88;;;15.12;67.42
73016;BME280;61893;50.074;14.440;2023-05-23T03:50:18;97939.91;;;14.90;68.58
73016;BME280;61893;50.074;14.440;2023-05-23T03:52:44;97944.44;;;14.89;68.59
73016;BME280;61893;50.074;14.440;2023-05-23T03:55:12;97940.84;;;15.03;68.38
73016;BME280;61893;50.074;14.440;2023-05-23T03:57:38;97940.59;;;14.98;68.53
73016;BME280;61893;50.074;14.440;2023-05-23T04:00:04;97938.13;;;14.97;68.66
73016;BME280;61893;50.074;14.440;2023-05-23T04:02:36;97936.25;;;15.25;68.12
73016;BME280;61893;50.074;14.440;2023-05-23T04:05:04;97934.81;;;15.29;68.40
73016;BME280;61893;50.074;14.440;2023-05-23T04:07:32;97936.84;;;15.27;68.12
73016;BME280;61893;50.074;14.440;2023-05-23T04:10:00;97941.25;;;15.70;66.96
73016;BME280;61893;50.074;14.440;2023-05-23T04:12:26;97935.66;;;16.26;64.48
73016;BME280;61893;50.074;14.440;2023-05-23T04:14:51;97933.31;;;15.55;66.54
73016;BME280;61893;50.074;14.440;2023-05-23T04:17:17;97931.09;;;15.65;64.72
73016;BME280;61893;50.074;14.440;2023-05-23T04:19:43;97932.31;;;15.63;65.04
73016;BME280;61893;50.074;14.440;2023-05-23T04:22:09;97932.88;;;15.51;65.39
73016;BME280;61893;50.074;14.440;2023-05-23T04:24:50;97948.16;;;15.51;65.56
73016;BME280;61893;50.074;14.440;2023-05-23T04:27:16;97951.00;;;15.77;64.67
73016;BME280;61893;50.074;14.440;2023-05-23T04:29:41;97952.94;;;16.04;63.89
73016;BME280;61893;50.074;14.440;2023-05-23T04:32:08;97953.59;;;16.12;63.02
73016;BME280;61893;50.074;14.440;2023-05-23T04:34:45;97942.91;;;16.26;62.13
73016;BME280;61893;50.074;14.440;2023-05-23T04:37:43;97941.28;;;16.51;61.26
73016;BME280;61893;50.074;14.440;2023-05-23T04:40:37;97945.41;;;16.47;60.84
73016;BME280;61893;50.074;14.440;2023-05-23T04:43:07;97949.34;;;16.51;61.11
73016;BME280;61893;50.074;14.440;2023-05-23T04:45:34;97944.56;;;16.47;60.96
73016;BME280;61893;50.074;14.440;2023-05-23T04:48:02;97943.44;;;16.08;62.51
73016;BME280;61893;50.074;14.440;2023-05-23T04:50:28;97939.38;;;16.32;62.54
73016;BME280;61893;50.074;14.440;2023-05-23T04:53:03;97934.06;;;16.58;61.49
73016;BME280;61893;50.074;14.440;2023-05-23T04:55:29;97931.16;;;16.47;61.73
73016;BME280;61893;50.074;14.440;2023-05-23T04:57:55;97925.28;;;17.56;58.52
73016;BME280;61893;50.074;14.440;2023-05-23T05:00:20;97922.72;;;18.26;55.83
73016;BME280;61893;50.074;14.440;2023-05-23T05:02:46;97917.03;;;18.41;54.92
73016;BME280;61893;50.074;14.440;2023-05-23T05:05:12;97915.94;;;17.72;57.21
73016;BME280;61893;50.074;14.440;2023-05-23T05:07:40;97911.88;;;17.49;58.09
73016;BME280;61893;50.074;14.440;2023-05-23T05:10:06;97902.50;;;17.59;58.04
73016;BME280;61893;50.074;14.440;2023-05-23T05:12:33;97901.72;;;17.51;57.82
73016;BME280;61893;50.074;14.440;2023-05-23T05:14:59;97906.34;;;18.28;55.26
73016;BME280;61893;50.074;14.440;2023-05-23T05:17:28;97896.38;;;18.28;54.57
73016;BME280;61893;50.074;14.440;2023-05-23T05:20:02;97900.16;;;17.82;55.82
73016;BME280;61893;50.074;14.440;2023-05-23T05:22:37;97907.09;;;17.45;57.64
73016;BME280;61893;50.074;14.440;2023-05-23T05:25:08;97925.38;;;17.94;56.98
73016;BME280;61893;50.074;14.440;2023-05-23T05:27:35;97920.63;;;18.28;55.70
73016;BME280;61893;50.074;14.440;2023-05-23T05:30:05;97919.88;;;17.69;57.31
73016;BME280;61893;50.074;14.440;2023-05-23T05:32:34;97924.19;;;18.54;54.83
73016;BME280;61893;50.074;14.440;2023-05-23T05:35:02;97917.63;;;19.00;53.81
73016;BME280;61893;50.074;14.440;2023-05-23T05:37:29;97929.81;;;19.27;52.89
73016;BME280;61893;50.074;14.440;2023-05-23T05:39:55;97931.69;;;21.38;47.01
73016;BME280;61893;50.074;14.440;2023-05-23T05:42:27;97931.16;;;23.08;43.78
73016;BME280;61893;50.074;14.440;2023-05-23T05:44:55;97936.97;;;25.30;39.69
73016;BME280;61893;50.074;14.440;2023-05-23T05:47:22;97940.25;;;26.52;37.03
73016;BME280;61893;50.074;14.440;2023-05-23T05:49:48;97940.56;;;25.40;38.28
73016;BME280;61893;50.074;14.440;2023-05-23T05:52:14;97941.19;;;23.63;42.16
73016;BME280;61893;50.074;14.440;2023-05-23T05:54:42;97945.25;;;24.81;39.71
73016;BME280;61893;50.074;14.440;2023-05-23T05:57:11;97938.13;;;22.87;43.54
73016;BME280;61893;50.074;14.440;2023-05-23T05:59:38;97945.19;;;23.77;42.24
73016;BME280;61893;50.074;14.440;2023-05-23T06:02:23;97943.38;;;21.91;46.10
73016;BME280;61893;50.074;14.440;2023-05-23T06:07:27;97934.34;;;23.77;41.90
73016;BME280;61893;50.074;14.440;2023-05-23T06:10:53;97950.31;;;27.90;34.46
73016;BME280;61893;50.074;14.440;2023-05-23T06:14:00;97958.34;;;29.97;30.45
73016;BME280;61893;50.074;14.440;2023-05-23T06:17:17;97961.41;;;30.77;28.52
73016;BME280;61893;50.074;14.440;2023-05-23T06:20:21;97965.69;;;29.49;29.84
73016;BME280;61893;50.074;14.440;2023-05-23T06:22:59;97974.38;;;30.09;29.05
73016;BME280;61893;50.074;14.440;2023-05-23T06:25:26;97970.06;;;28.81;30.94
73016;BME280;61893;50.074;14.440;2023-05-23T06:27:52;97974.16;;;27.44;33.66
73016;BME280;61893;50.074;14.440;2023-05-23T06:30:18;97972.66;;;26.44;35.65
73016;BME280;61893;50.074;14.440;2023-05-23T06:32:44;97975.06;;;25.67;37.24
73016;BME280;61893;50.074;14.440;2023-05-23T06:35:13;97974.06;;;25.09;39.13
73016;BME280;61893;50.074;14.440;2023-05-23T06:37:39;97972.03;;;24.40;40.57
73016;BME280;61893;50.074;14.440;2023-05-23T06:40:12;97964.97;;;23.95;41.80
73016;BME280;61893;50.074;14.440;2023-05-23T06:42:49;97971.53;;;23.38;43.62
73016;BME280;61893;50.074;14.440;2023-05-23T06:45:17;97983.88;;;22.95;44.99
73016;BME280;61893;50.074;14.440;2023-05-23T06:47:43;97988.47;;;22.66;46.78
73016;BME280;61893;50.074;14.440;2023-05-23T06:50:10;97986.13;;;22.69;46.60
73016;BME280;61893;50.074;14.440;2023-05-23T06:55:25;97991.19;;;21.85;48.65
73016;BME280;61893;50.074;14.440;2023-05-23T06:57:56;97991.81;;;21.64;49.00
73016;BME280;61893;50.074;14.440;2023-05-23T07:00:22;97986.03;;;21.48;49.05
73016;BME280;61893;50.074;14.440;2023-05-23T07:05:57;97993.31;;;21.12;49.40
73016;BME280;61893;50.074;14.440;2023-05-23T07:08:32;97989.78;;;21.24;49.36
73016;BME280;61893;50.074;14.440;2023-05-23T07:16:21;97991.47;;;21.48;46.72
73016;BME280;61893;50.074;14.440;2023-05-23T07:18:51;97991.91;;;21.80;45.85
73016;BME280;61893;50.074;14.440;2023-05-23T07:21:24;97997.56;;;21.67;45.88
73016;BME280;61893;50.074;14.440;2023-05-23T07:24:12;97997.41;;;21.86;45.23
73016;BME280;61893;50.074;14.440;2023-05-23T07:26:41;97994.91;;;22.19;45.15
73016;BME280;61893;50.074;14.440;2023-05-23T07:32:22;97996.72;;;21.90;45.10
73016;BME280;61893;50.074;14.440;2023-05-23T07:34:51;98000.81;;;22.04;44.85
73016;BME280;61893;50.074;14.440;2023-05-23T07:40:37;98010.00;;;22.03;45.42
73016;BME280;61893;50.074;14.440;2023-05-23T07:43:40;98005.84;;;22.13;45.77
73016;BME280;61893;50.074;14.440;2023-05-23T07:46:20;98007.75;;;22.53;45.06
73016;BME280;61893;50.074;14.440;2023-05-23T07:48:51;98003.94;;;23.28;43.49
73016;BME280;61893;50.074;14.440;2023-05-23T07:51:31;98013.41;;;24.42;40.49
73016;BME280;61893;50.074;14.440;2023-05-23T07:54:34;98017.34;;;24.51;39.93
73016;BME280;61893;50.074;14.440;2023-05-23T07:59:54;98017.31;;;23.34;42.48
73016;BME280;61893;50.074;14.440;2023-05-23T08:02:36;98029.63;;;23.93;41.36
73016;BME280;61893;50.074;14.440;2023-05-23T08:13:59;98031.47;;;25.34;39.37
73016;BME280;61893;50.074;14.440;2023-05-23T08:16:26;98028.66;;;25.56;38.42
73016;BME280;61893;50.074;14.440;2023-05-23T08:18:53;98032.97;;;25.84;38.37
73016;BME280;61893;50.074;14.440;2023-05-23T08:21:34;98033.72;;;25.43;39.47
73016;BME280;61893;50.074;14.440;2023-05-23T08:24:37;98030.69;;;25.07;40.13
73016;BME280;61893;50.074;14.440;2023-05-23T08:27:09;98032.53;;;24.74;40.01
73016;BME280;61893;50.074;14.440;2023-05-23T08:30:06;98045.50;;;24.01;41.64
73016;BME280;61893;50.074;14.440;2023-05-23T08:36:00;98049.22;;;23.95;42.38
73016;BME280;61893;50.074;14.440;2023-05-23T08:39:06;98043.75;;;24.34;41.38
73016;BME280;61893;50.074;14.440;2023-05-23T08:47:06;98053.94;;;23.66;43.04
73016;BME280;61893;50.074;14.440;2023-05-23T08:53:20;98067.09;;;23.23;44.73
73016;BME280;61893;50.074;14.440;2023-05-23T08:56:43;98069.13;;;22.99;45.69
73016;BME280;61893;50.074;14.440;2023-05-23T08:59:15;98077.19;;;22.82;46.20
73016;BME280;61893;50.074;14.440;2023-05-23T09:09:52;98086.53;;;22.34;48.55
73016;BME280;61893;50.074;14.440;2023-05-23T09:22:48;98088.84;;;19.91;60.52
73016;BME280;61893;50.074;14.440;2023-05-23T09:25:16;98089.09;;;20.08;60.98
73016;BME280;61893;50.074;14.440;2023-05-23T09:27:46;98088.25;;;20.07;60.79
73016;BME280;61893;50.074;14.440;2023-05-23T09:33:02;98086.31;;;19.96;61.75
73016;BME280;61893;50.074;14.440;2023-05-23T09:35:43;98096.47;;;19.75;62.64
73016;BME280;61893;50.074;14.440;2023-05-23T09:38:15;98101.63;;;19.52;63.57
73016;BME280;61893;50.074;14.440;2023-05-23T09:43:21;98106.41;;;19.25;64.35
73016;BME280;61893;50.074;14.440;2023-05-23T09:45:59;98113.22;;;19.27;64.36
73016;BME280;61893;50.074;14.440;2023-05-23T09:49:17;98111.03;;;19.11;64.42
73016;BME280;61893;50.074;14.440;2023-05-23T09:55:35;98107.22;;;18.94;65.47
73016;BME280;61893;50.074;14.440;2023-05-23T09:58:22;98108.19;;;19.06;64.59
73016;BME280;61893;50.074;14.440;2023-05-23T10:01:59;98105.75;;;18.98;64.35
73016;BME280;61893;50.074;14.440;2023-05-23T10:07:47;98108.13;;;18.81;66.20
73016;BME280;61893;50.074;14.440;2023-05-23T10:18:28;98104.38;;;19.45;64.69
73016;BME280;61893;50.074;14.440;2023-05-23T10:26:36;98100.31;;;19.61;64.69
73016;BME280;61893;50.074;14.440;2023-05-23T10:29:13;98093.34;;;19.97;63.48
73016;BME280;61893;50.074;14.440;2023-05-23T10:31:55;98091.94;;;20.31;62.52
73016;BME280;61893;50.074;14.440;2023-05-23T10:35:34;98093.72;;;20.74;61.40
73016;BME280;61893;50.074;14.440;2023-05-23T15:10:30;98099.75;;;21.72;48.66
73016;BME280;61893;50.074;14.440;2023-05-23T22:33:27;98499.56;;;13.43;67.28
73016;BME280;61893;50.074;14.440;2023-05-23T22:45:21;98505.88;;;13.50;66.61
73016;BME280;61893;50.074;14.440;2023-05-23T22:48:15;98510.22;;;13.51;66.69
73016;BME280;61893;50.074;14.440;2023-05-23T22:51:59;98505.56;;;13.54;66.01
73016;BME280;61893;50.074;14.440;2023-05-23T22:54:49;98509.75;;;13.40;66.76
73016;BME280;61893;50.074;14.440;2023-05-23T23:14:14;98510.78;;;13.31;66.78
73016;BME280;61893;50.074;14.440;2023-05-23T23:28:53;98534.00;;;13.05;67.42
73016;BME280;61893;50.074;14.440;2023-05-23T23:31:53;98534.34;;;12.94;67.35
73016;BME280;61893;50.074;14.440;2023-05-23T23:35:12;98532.66;;;12.93;66.93
73016;BME280;61893;50.074;14.440;2023-05-23T23:38:15;98532.00;;;12.75;66.66
73016;BME280;61893;50.074;14.440;2023-05-23T23:41:49;98540.69;;;12.85;66.02
73016;BME280;61893;50.074;14.440;2023-05-23T23:44:23;98540.00;;;12.75;66.20
73016;BME280;61893;50.074;14.440;2023-05-23T23:46:57;98542.66;;;12.75;65.85
73016;BME280;61893;50.074;14.440;2023-05-23T23:49:39;98532.31;;;12.72;65.72
73016;BME280;61893;50.074;14.440;2023-05-23T23:54:42;98537.31;;;12.67;65.83
73016;BME280;61893;50.074;14.440;2023-05-23T23:57:10;98537.16;;;12.68;66.02
73016;BME280;61893;50.074;14.440;2023-05-23T23:59:59;98539.81;;;12.60;66.25
